Egegik Airport Egegik US
ICAO: PAII
IATA:
Category: Medium
Scheduled Services:

Elevation: 92 ft
TransAlt. 18000 ft.

Airport Communications:
ANCHORAGE CNTR:124.8
AWOS 3:135.65
CTAF:122.8

PAII Zoom In..

If you have problems with the map follow the link
https://www.worldairports.se/pages/airport.php?
ICAO=PAII

Runways:

(A) RW 03 length 1500 ft width 75 ft
---- / hdg 32

(B) RW 12 length 5600 ft width 100 ft
---- / hdg 122

(C) RW 21 length 1500 ft width 75 ft
---- / hdg 212

(D) RW 30 length 5600 ft width 100 ft
---- / hdg 302

Location; PAII
Day. 22 / Time. 11.56 Zulu
* Altimeter: 29.76
* Temperature: -16° c. -3.2°f.
* Wind from: 050° Speed 04 kn.
Dewpoint: -17° c.
Visibility: 10 Statute Miles.
Clouds: Overcast 400 ft.

PAII 221156Z AUTO 05004KT 10SM OVC004 M16/M17 A2976 RMK AO2 SLP078 60000 T11561172 11156 21183 53012 FZRANO


Wind From 050°
Speed 04 kn.

 
 
jpsmedia worldairports.se 2020   terms of use